createdAt,value
2023-05-11T00:02:31.476Z,14.80
2023-05-11T00:05:06.954Z,14.10
2023-05-11T00:07:42.354Z,14.03
2023-05-11T00:10:18.052Z,13.63
2023-05-11T00:12:54.291Z,12.43
2023-05-11T00:15:32.749Z,12.97
2023-05-11T00:18:12.579Z,13.80
2023-05-11T00:20:49.126Z,12.70
2023-05-11T00:23:25.245Z,15.60
2023-05-11T00:26:04.431Z,14.10
2023-05-11T00:28:39.027Z,12.80
2023-05-11T00:31:30.145Z,13.97
2023-05-11T00:34:05.544Z,23.23
2023-05-11T00:36:41.405Z,14.00
2023-05-11T00:39:15.596Z,13.73
2023-05-11T00:41:51.410Z,13.30
2023-05-11T00:44:28.473Z,13.93
2023-05-11T00:47:05.307Z,13.23
2023-05-11T00:49:42.423Z,12.83
2023-05-11T00:52:19.415Z,11.83
2023-05-11T00:54:58.078Z,13.03
2023-05-11T00:57:33.148Z,12.73
2023-05-11T01:00:07.154Z,13.87
2023-05-11T01:02:42.091Z,13.70
2023-05-11T01:05:21.058Z,14.00
2023-05-11T01:08:02.147Z,13.87
2023-05-11T01:10:50.646Z,12.03
2023-05-11T01:13:32.398Z,12.93
2023-05-11T01:16:13.813Z,13.23
2023-05-11T01:18:55.321Z,13.00
2023-05-11T01:21:38.848Z,13.10
2023-05-11T01:24:43.423Z,13.90
2023-05-11T01:27:36.758Z,14.53
2023-05-11T01:30:40.455Z,14.70
2023-05-11T01:33:19.117Z,14.77
2023-05-11T01:36:00.637Z,14.40
2023-05-11T01:38:38.203Z,13.73
2023-05-11T01:41:23.926Z,15.53
2023-05-11T01:44:04.593Z,14.90
2023-05-11T01:46:44.206Z,15.77
2023-05-11T01:49:27.391Z,14.23
2023-05-11T01:52:06.808Z,15.37
2023-05-11T01:54:43.415Z,14.73
2023-05-11T01:57:18.747Z,14.37
2023-05-11T01:59:56.117Z,14.53
2023-05-11T02:02:34.984Z,14.83
2023-05-11T02:05:11.203Z,13.80
2023-05-11T02:07:51.827Z,13.63
2023-05-11T02:10:30.580Z,13.80
2023-05-11T02:13:06.790Z,14.27
2023-05-11T02:15:44.754Z,13.83
2023-05-11T02:18:21.350Z,13.53
2023-05-11T02:21:07.254Z,13.90
2023-05-11T02:23:44.922Z,13.37
2023-05-11T02:26:21.339Z,13.70
2023-05-11T02:28:55.684Z,12.90
2023-05-11T02:31:41.719Z,13.00
2023-05-11T02:34:23.514Z,12.03
2023-05-11T02:37:11.846Z,12.80
2023-05-11T02:39:52.172Z,12.97
2023-05-11T02:42:29.025Z,12.63
2023-05-11T02:45:09.348Z,12.50
2023-05-11T02:47:49.315Z,12.07
2023-05-11T02:50:33.618Z,11.27
2023-05-11T02:53:12.434Z,12.00
2023-05-11T02:55:50.505Z,11.00
2023-05-11T02:58:31.460Z,11.77
2023-05-11T03:01:19.513Z,13.13
2023-05-11T03:03:54.362Z,11.90
2023-05-11T03:06:45.408Z,12.97
2023-05-11T03:09:20.025Z,13.93
2023-05-11T03:11:58.454Z,13.97
2023-05-11T03:14:38.614Z,13.83
2023-05-11T03:17:22.738Z,13.90
2023-05-11T03:20:00.332Z,12.90
2023-05-11T03:22:54.439Z,13.40
2023-05-11T03:25:31.376Z,13.03
2023-05-11T03:28:17.078Z,13.57
2023-05-11T03:31:04.059Z,13.67
2023-05-11T03:33:41.989Z,13.27
2023-05-11T03:36:21.131Z,13.73
2023-05-11T03:39:10.095Z,13.50
2023-05-11T03:41:58.254Z,15.20
2023-05-11T03:44:35.829Z,13.93
2023-05-11T03:47:12.325Z,15.33
2023-05-11T03:49:55.670Z,14.83
2023-05-11T03:52:35.527Z,15.30
2023-05-11T03:55:15.258Z,15.27
2023-05-11T03:57:50.346Z,16.20
2023-05-11T04:00:27.123Z,15.90
2023-05-11T04:03:03.244Z,16.80
2023-05-11T04:05:46.263Z,14.73
2023-05-11T04:08:23.617Z,16.30
2023-05-11T04:10:59.347Z,15.20
2023-05-11T04:13:40.974Z,16.40
2023-05-11T04:16:22.905Z,16.27
2023-05-11T04:19:02.141Z,15.97
2023-05-11T04:21:36.949Z,16.97
2023-05-11T04:24:17.255Z,16.40
2023-05-11T04:27:01.206Z,17.80
2023-05-11T04:29:38.114Z,16.20
2023-05-11T04:32:11.903Z,15.17
2023-05-11T04:34:48.362Z,15.17
2023-05-11T04:37:28.356Z,14.67
2023-05-11T04:40:06.728Z,14.67
2023-05-11T04:42:49.132Z,13.37
2023-05-11T04:45:39.173Z,14.03
2023-05-11T04:48:14.601Z,13.97
2023-05-11T04:50:54.740Z,14.50
2023-05-11T04:53:33.014Z,13.57
2023-05-11T04:56:06.283Z,13.63
2023-05-11T04:58:46.634Z,13.43
2023-05-11T05:01:22.069Z,11.87
2023-05-11T05:03:56.818Z,13.00
2023-05-11T05:06:34.916Z,12.43
2023-05-11T05:09:13.812Z,11.47
2023-05-11T05:11:50.511Z,11.53
2023-05-11T05:14:32.111Z,11.17
2023-05-11T05:17:06.156Z,12.07
2023-05-11T05:19:41.439Z,11.37
2023-05-11T05:22:18.534Z,10.77
2023-05-11T05:24:54.178Z,11.30
2023-05-11T05:27:28.241Z,11.10
2023-05-11T05:30:08.152Z,11.90
2023-05-11T05:32:44.896Z,10.37
2023-05-11T05:35:21.008Z,10.30
2023-05-11T05:37:56.683Z,10.23
2023-05-11T05:40:33.281Z,9.57
2023-05-11T05:43:15.052Z,8.97
2023-05-11T05:45:54.592Z,8.70
2023-05-11T05:48:28.525Z,9.27
2023-05-11T05:51:05.035Z,9.43
2023-05-11T05:53:50.339Z,9.60
2023-05-11T05:56:23.838Z,8.73
2023-05-11T05:58:59.287Z,9.37
2023-05-11T06:01:37.260Z,8.53
2023-05-11T06:04:11.732Z,6.83
2023-05-11T06:06:48.868Z,9.40
2023-05-11T06:09:24.322Z,8.40
2023-05-11T06:11:59.054Z,8.07
2023-05-11T06:14:35.122Z,7.93
2023-05-11T06:17:16.044Z,7.53
2023-05-11T06:19:54.104Z,7.70
2023-05-11T06:22:33.725Z,9.00
2023-05-11T06:25:08.677Z,9.87
2023-05-11T06:27:46.722Z,9.23
2023-05-11T06:30:24.682Z,8.67
2023-05-11T06:33:01.942Z,9.40
2023-05-11T06:35:53.402Z,10.30
2023-05-11T06:38:49.290Z,9.17
2023-05-11T06:41:31.620Z,7.77
2023-05-11T06:44:31.294Z,7.47
2023-05-11T06:47:07.681Z,7.67
2023-05-11T06:49:58.798Z,7.07
2023-05-11T06:52:40.906Z,6.97
2023-05-11T06:55:29.415Z,6.80
2023-05-11T06:58:15.527Z,5.90
2023-05-11T07:00:54.983Z,6.73
2023-05-11T07:03:45.500Z,8.27
2023-05-11T07:06:37.680Z,7.97
2023-05-11T07:09:30.291Z,6.53
2023-05-11T07:12:27.995Z,8.00
2023-05-11T07:15:22.461Z,7.10
2023-05-11T07:18:21.126Z,6.93
2023-05-11T07:21:10.917Z,7.60
2023-05-11T07:24:05.800Z,7.53
2023-05-11T07:26:50.624Z,6.60
2023-05-11T07:29:47.314Z,6.83
2023-05-11T07:32:35.079Z,6.23
2023-05-11T07:35:19.819Z,6.83
2023-05-11T07:38:01.503Z,6.43
2023-05-11T07:40:42.788Z,7.43
2023-05-11T07:43:20.168Z,6.70
2023-05-11T07:46:02.385Z,6.50
2023-05-11T07:49:03.413Z,6.47
2023-05-11T07:51:56.530Z,6.43
2023-05-11T07:54:43.107Z,7.27
2023-05-11T07:57:23.999Z,6.07
2023-05-11T08:00:04.869Z,6.90
2023-05-11T08:03:11.242Z,6.40
2023-05-11T08:06:00.392Z,7.10
2023-05-11T08:09:01.456Z,6.57
2023-05-11T08:11:54.021Z,6.83
2023-05-11T08:14:41.417Z,6.80
2023-05-11T08:17:54.010Z,6.50
2023-05-11T08:20:43.891Z,7.17
2023-05-11T08:23:22.739Z,5.73
2023-05-11T08:26:24.369Z,6.07
2023-05-11T08:29:12.880Z,5.23
2023-05-11T08:31:54.300Z,5.30
2023-05-11T08:34:35.224Z,5.67
2023-05-11T08:37:17.451Z,4.77
2023-05-11T08:40:13.954Z,5.60
2023-05-11T08:42:58.724Z,6.10
2023-05-11T08:45:46.015Z,5.03
2023-05-11T08:48:44.020Z,5.33
2023-05-11T08:51:30.830Z,5.50
2023-05-11T08:54:11.618Z,6.13
2023-05-11T08:57:00.002Z,5.53
2023-05-11T08:59:40.106Z,5.57
2023-05-11T09:02:22.157Z,5.97
2023-05-11T09:05:17.820Z,5.10
2023-05-11T09:08:10.788Z,5.53
2023-05-11T09:10:54.394Z,5.13
2023-05-11T09:13:57.501Z,5.47
2023-05-11T09:16:49.498Z,5.40
2023-05-11T09:19:29.692Z,6.00
2023-05-11T09:22:41.045Z,5.60
2023-05-11T09:25:43.921Z,5.80
2023-05-11T09:31:58.307Z,5.93
2023-05-11T09:34:48.678Z,5.67
2023-05-11T09:37:46.744Z,6.13
2023-05-11T09:40:51.365Z,6.13
2023-05-11T09:43:28.452Z,7.23
2023-05-11T09:46:13.139Z,6.57
2023-05-11T09:49:21.362Z,6.40
2023-05-11T09:52:06.992Z,6.10
2023-05-11T09:55:20.420Z,5.40
2023-05-11T09:58:15.049Z,6.00
2023-05-11T10:01:11.019Z,6.33
2023-05-11T10:04:24.179Z,6.90
2023-05-11T10:07:08.213Z,6.40
2023-05-11T10:09:44.560Z,7.20
2023-05-11T10:12:36.000Z,7.30
2023-05-11T10:15:31.964Z,6.93
2023-05-11T10:18:23.693Z,6.60
2023-05-11T10:21:13.275Z,6.73
2023-05-11T10:23:51.136Z,6.17
2023-05-11T10:26:44.157Z,6.40
2023-05-11T10:29:49.245Z,6.60
2023-05-11T10:32:43.368Z,7.40
2023-05-11T10:35:56.041Z,7.20
2023-05-11T10:38:47.078Z,6.40
2023-05-11T10:41:52.926Z,6.53
2023-05-11T10:45:03.150Z,6.47
2023-05-11T10:48:09.229Z,6.83
2023-05-11T10:51:07.763Z,6.13
2023-05-11T10:54:14.526Z,6.80
2023-05-11T10:57:13.508Z,7.40
2023-05-11T11:00:13.807Z,6.80
2023-05-11T11:02:55.419Z,6.00
2023-05-11T11:05:50.624Z,7.37
2023-05-11T11:08:39.727Z,6.27
2023-05-11T11:11:42.362Z,6.43
2023-05-11T11:14:32.926Z,6.50
2023-05-11T11:17:39.706Z,6.17
2023-05-11T11:20:56.546Z,6.77
2023-05-11T11:24:00.633Z,6.97
2023-05-11T11:27:03.623Z,6.53
2023-05-11T11:29:52.326Z,6.63
2023-05-11T11:32:39.452Z,7.00
2023-05-11T11:36:01.978Z,7.23
2023-05-11T11:39:08.392Z,6.37
2023-05-11T11:45:56.639Z,6.83
2023-05-11T11:48:51.870Z,6.47
2023-05-11T11:51:53.585Z,6.53
2023-05-11T11:54:59.028Z,6.80
2023-05-11T11:57:56.949Z,6.50
2023-05-11T12:00:59.747Z,6.70
2023-05-11T12:03:43.630Z,6.40
2023-05-11T12:06:27.082Z,6.83
2023-05-11T12:09:17.385Z,6.90
2023-05-11T12:12:56.871Z,6.80
2023-05-11T12:15:56.151Z,7.33
2023-05-11T12:18:57.256Z,7.00
2023-05-11T12:21:46.354Z,7.10
2023-05-11T12:24:34.612Z,7.17
2023-05-11T12:30:31.477Z,7.07
2023-05-11T12:33:26.858Z,6.50
2023-05-11T12:36:09.404Z,7.93
2023-05-11T12:38:58.547Z,7.13
2023-05-11T12:41:46.905Z,7.17
2023-05-11T12:44:55.234Z,6.93
2023-05-11T12:47:37.660Z,8.23
2023-05-11T12:50:29.237Z,8.10
2023-05-11T12:53:50.800Z,7.50
2023-05-11T12:56:34.340Z,7.47
2023-05-11T12:59:32.505Z,8.57
2023-05-11T13:02:37.811Z,9.17
2023-05-11T13:05:22.753Z,8.43
2023-05-11T13:08:16.776Z,8.60
2023-05-11T13:11:10.694Z,8.93
2023-05-11T13:13:59.468Z,8.77
2023-05-11T13:17:09.057Z,9.43
2023-05-11T13:19:55.995Z,8.90
2023-05-11T13:22:51.477Z,9.03
2023-05-11T13:26:05.058Z,9.60
2023-05-11T13:29:10.123Z,9.07
2023-05-11T13:32:27.346Z,9.00
2023-05-11T13:35:21.158Z,8.57
2023-05-11T13:38:07.849Z,8.47
2023-05-11T13:40:54.433Z,9.63
2023-05-11T13:43:36.258Z,8.90
2023-05-11T13:46:47.792Z,9.10
2023-05-11T13:50:01.031Z,9.37
2023-05-11T13:52:41.837Z,8.77
2023-05-11T13:55:19.760Z,9.10
2023-05-11T13:58:03.522Z,9.53
2023-05-11T14:01:07.684Z,9.10
2023-05-11T14:04:16.732Z,10.00
2023-05-11T14:06:58.788Z,8.70
2023-05-11T14:09:51.244Z,9.43
2023-05-11T14:12:35.772Z,9.07
2023-05-11T14:15:54.609Z,9.33
2023-05-11T14:18:41.720Z,8.97
2023-05-11T14:21:37.849Z,8.43
2023-05-11T14:24:19.372Z,8.57
2023-05-11T14:27:10.544Z,9.10
2023-05-11T14:30:02.783Z,8.93
2023-05-11T14:32:58.576Z,9.43
2023-05-11T14:35:52.914Z,8.13
2023-05-11T14:41:54.093Z,9.00
2023-05-11T14:44:49.216Z,8.87
2023-05-11T14:47:38.929Z,8.93
2023-05-11T14:50:48.270Z,7.90
2023-05-11T14:53:30.566Z,8.93
2023-05-11T14:56:24.369Z,8.03
2023-05-11T14:59:09.522Z,9.03
2023-05-11T15:01:48.893Z,9.33
2023-05-11T15:04:50.491Z,9.07
2023-05-11T15:07:45.482Z,10.47
2023-05-11T15:10:28.912Z,11.57
2023-05-11T15:13:22.341Z,10.10
2023-05-11T15:16:13.111Z,9.70
2023-05-11T15:19:08.228Z,12.37
2023-05-11T15:21:54.612Z,10.77
2023-05-11T15:24:50.750Z,11.97
2023-05-11T15:27:36.819Z,10.03
2023-05-11T15:30:32.701Z,10.43
2023-05-11T15:33:19.687Z,9.40
2023-05-11T15:36:02.435Z,10.20
2023-05-11T15:38:40.636Z,10.53
2023-05-11T15:41:20.415Z,10.63
2023-05-11T15:44:09.788Z,10.23
2023-05-11T15:47:07.898Z,10.13
2023-05-11T15:49:55.531Z,10.27
2023-05-11T15:52:58.960Z,10.87
2023-05-11T15:55:49.443Z,11.07
2023-05-11T15:58:39.312Z,11.87
2023-05-11T16:01:45.205Z,12.57
2023-05-11T16:04:45.063Z,11.73
2023-05-11T16:07:34.194Z,10.87
2023-05-11T16:10:20.981Z,11.93
2023-05-11T16:13:48.369Z,10.80
2023-05-11T16:17:11.168Z,11.40
2023-05-11T16:20:34.770Z,11.90
2023-05-11T16:24:00.022Z,13.37
2023-05-11T16:27:03.427Z,11.53
2023-05-11T16:30:24.417Z,11.77
2023-05-11T16:33:35.255Z,12.17
2023-05-11T16:36:43.757Z,11.33
2023-05-11T16:39:48.607Z,12.03
2023-05-11T16:43:04.886Z,11.87
2023-05-11T16:46:12.121Z,11.20
2023-05-11T16:49:30.623Z,12.33
2023-05-11T16:52:24.465Z,13.17
2023-05-11T16:55:12.397Z,12.20
2023-05-11T16:59:01.036Z,11.93
2023-05-11T17:01:38.512Z,11.93
2023-05-11T17:04:40.181Z,13.83
2023-05-11T17:07:17.349Z,11.73
2023-05-11T17:10:42.815Z,13.53
2023-05-11T17:14:18.760Z,12.20
2023-05-11T17:17:36.241Z,12.43
2023-05-11T17:20:39.795Z,12.83
2023-05-11T17:23:37.580Z,12.33
2023-05-11T17:26:48.297Z,13.87
2023-05-11T17:29:32.588Z,13.50
2023-05-11T17:32:43.554Z,16.43
2023-05-11T17:35:37.998Z,16.30
2023-05-11T17:38:14.570Z,13.67
2023-05-11T17:41:15.620Z,12.57
2023-05-11T17:44:36.944Z,14.10
2023-05-11T17:47:43.531Z,13.90
2023-05-11T17:50:42.269Z,12.77
2023-05-11T17:53:41.615Z,14.83
2023-05-11T17:56:28.888Z,13.90
2023-05-11T17:59:58.856Z,15.37
2023-05-11T18:03:07.082Z,13.97
2023-05-11T18:09:00.710Z,14.97
2023-05-11T18:12:29.045Z,13.57
2023-05-11T18:15:33.081Z,14.33
2023-05-11T18:18:38.556Z,15.10
2023-05-11T18:22:09.498Z,14.27
2023-05-11T18:25:32.757Z,14.00
2023-05-11T18:28:38.060Z,15.00
2023-05-11T18:31:20.073Z,15.00
2023-05-11T18:33:58.376Z,17.17
2023-05-11T18:36:42.080Z,14.83
2023-05-11T18:39:19.985Z,15.57
2023-05-11T18:41:59.163Z,13.83
2023-05-11T18:44:34.510Z,16.10
2023-05-11T18:47:11.692Z,14.30
2023-05-11T18:49:49.133Z,16.70
2023-05-11T18:52:29.809Z,14.20
2023-05-11T18:55:10.238Z,15.40
2023-05-11T18:57:46.683Z,14.60
2023-05-11T19:00:25.507Z,14.23
2023-05-11T19:03:00.884Z,14.33
2023-05-11T19:05:42.009Z,13.77
2023-05-11T19:08:20.367Z,14.93
2023-05-11T19:10:59.006Z,15.00
2023-05-11T19:13:35.265Z,15.10
2023-05-11T19:16:10.401Z,15.37
2023-05-11T19:18:45.308Z,15.37
2023-05-11T19:21:23.309Z,16.87
2023-05-11T19:23:57.167Z,15.43
2023-05-11T19:26:33.946Z,16.60
2023-05-11T19:29:12.200Z,20.13
2023-05-11T19:31:51.280Z,15.63
2023-05-11T19:34:25.835Z,15.47
2023-05-11T19:37:03.637Z,15.50
2023-05-11T19:39:41.111Z,14.97
2023-05-11T19:42:19.634Z,16.50
2023-05-11T19:44:57.875Z,16.23
2023-05-11T19:47:38.633Z,14.97
2023-05-11T19:50:16.481Z,14.97
2023-05-11T19:52:56.072Z,15.17
2023-05-11T19:55:30.612Z,14.53
2023-05-11T19:58:08.904Z,14.30
2023-05-11T20:00:47.427Z,15.17
2023-05-11T20:03:25.251Z,15.53
2023-05-11T20:06:04.645Z,16.47
2023-05-11T20:11:37.981Z,15.40
2023-05-11T20:14:17.908Z,15.73
2023-05-11T20:16:54.728Z,15.10
2023-05-11T20:19:32.605Z,16.10
2023-05-11T20:22:09.659Z,16.43
2023-05-11T20:24:49.209Z,15.20
2023-05-11T20:27:25.131Z,15.60
2023-05-11T20:29:59.396Z,15.13
2023-05-11T20:32:35.361Z,15.53
2023-05-11T20:35:13.137Z,14.90
2023-05-11T20:37:49.846Z,15.47
2023-05-11T20:40:26.592Z,15.90
2023-05-11T20:43:02.138Z,14.33
2023-05-11T20:45:40.642Z,15.20
2023-05-11T20:48:25.771Z,15.13
2023-05-11T20:51:07.009Z,14.60
2023-05-11T20:53:43.704Z,15.50
2023-05-11T20:56:23.479Z,15.67
2023-05-11T20:58:58.101Z,14.50
2023-05-11T21:01:34.512Z,17.07
2023-05-11T21:04:10.951Z,14.47
2023-05-11T21:06:49.263Z,15.50
2023-05-11T21:09:27.717Z,14.90
2023-05-11T21:12:03.267Z,14.57
2023-05-11T21:14:42.817Z,15.70
2023-05-11T21:17:16.114Z,15.40
2023-05-11T21:19:49.100Z,15.10
2023-05-11T21:22:25.094Z,15.37
2023-05-11T21:25:07.861Z,15.50
2023-05-11T21:27:45.396Z,15.43
2023-05-11T21:30:21.338Z,15.87
2023-05-11T21:33:00.641Z,15.30
2023-05-11T21:35:39.877Z,15.10
2023-05-11T21:38:16.670Z,15.60
2023-05-11T21:40:56.340Z,14.43
2023-05-11T21:43:37.472Z,15.47
2023-05-11T21:46:18.840Z,15.77
2023-05-11T21:48:54.562Z,15.07
2023-05-11T21:51:28.460Z,15.33
2023-05-11T21:54:04.229Z,15.10
2023-05-11T21:56:39.865Z,14.53
2023-05-11T21:59:18.135Z,14.50
2023-05-11T22:01:54.232Z,16.10
2023-05-11T22:04:35.608Z,14.90
2023-05-11T22:07:11.123Z,15.47
2023-05-11T22:09:52.749Z,15.70
2023-05-11T22:12:31.891Z,17.47
2023-05-11T22:15:19.546Z,15.03
2023-05-11T22:17:53.371Z,15.23
2023-05-11T22:20:30.551Z,16.43
2023-05-11T22:23:18.623Z,15.37
2023-05-11T22:25:59.643Z,15.67
2023-05-11T22:28:38.896Z,16.27
2023-05-11T22:31:17.351Z,17.63
2023-05-11T22:33:56.420Z,16.10
2023-05-11T22:36:37.714Z,17.83
2023-05-11T22:39:22.635Z,16.83
2023-05-11T22:42:01.697Z,15.77
2023-05-11T22:44:42.823Z,16.33
2023-05-11T22:47:19.414Z,17.50
2023-05-11T22:50:01.512Z,16.23
2023-05-11T22:52:38.317Z,16.70
2023-05-11T22:55:14.030Z,17.50
2023-05-11T22:57:54.547Z,16.90
2023-05-11T23:00:32.595Z,18.07
2023-05-11T23:03:10.701Z,17.23
2023-05-11T23:05:46.041Z,17.23
2023-05-11T23:08:37.225Z,17.90
2023-05-11T23:11:12.548Z,16.73
2023-05-11T23:13:48.252Z,18.13
2023-05-11T23:16:23.787Z,17.53
2023-05-11T23:19:08.927Z,17.23
2023-05-11T23:21:43.984Z,17.67
2023-05-11T23:24:22.569Z,17.67
2023-05-11T23:27:00.373Z,18.57
2023-05-11T23:29:33.551Z,17.70
2023-05-11T23:32:09.110Z,18.13
2023-05-11T23:34:45.121Z,17.57
2023-05-11T23:37:22.383Z,19.43
2023-05-11T23:39:56.721Z,18.40
2023-05-11T23:42:32.196Z,18.47
2023-05-11T23:45:07.444Z,18.30
2023-05-11T23:47:42.766Z,18.60
2023-05-11T23:50:23.857Z,18.90
2023-05-11T23:53:01.291Z,19.23
2023-05-11T23:55:35.488Z,18.07
2023-05-11T23:58:11.968Z,18.37
